Map

Track Data

SID SEASON NUMBER BASIN SUBBASIN NAME ISO_TIME NATURE LAT LON WMO_WIND WMO_PRES WMO_AGENCY TRACK_TYPE DIST2LAND LANDFALL IFLAG USA_AGENCY USA_ATCF_ID USA_LAT USA_LON USA_RECORD USA_STATUS USA_WIND USA_PRES USA_SSHS USA_R34_NE USA_R34_SE USA_R34_SW USA_R34_NW USA_R50_NE USA_R50_SE USA_R50_SW USA_R50_NW USA_R64_NE USA_R64_SE USA_R64_SW USA_R64_NW USA_POCI USA_ROCI USA_RMW USA_EYE TOKYO_LAT TOKYO_LON TOKYO_GRADE TOKYO_WIND TOKYO_PRES TOKYO_R50_DIR TOKYO_R50_LONG TOKYO_R50_SHORT TOKYO_R30_DIR TOKYO_R30_LONG TOKYO_R30_SHORT TOKYO_LAND CMA_LAT CMA_LON CMA_CAT CMA_WIND CMA_PRES HKO_LAT HKO_LON HKO_CAT HKO_WIND HKO_PRES NEWDELHI_LAT NEWDELHI_LON NEWDELHI_GRADE NEWDELHI_WIND NEWDELHI_PRES NEWDELHI_CI NEWDELHI_DP NEWDELHI_POCI REUNION_LAT REUNION_LON REUNION_TYPE REUNION_WIND REUNION_PRES REUNION_TNUM REUNION_CI REUNION_RMW REUNION_R34_NE REUNION_R34_SE REUNION_R34_SW REUNION_R34_NW REUNION_R50_NE REUNION_R50_SE REUNION_R50_SW REUNION_R50_NW REUNION_R64_NE REUNION_R64_SE REUNION_R64_SW REUNION_R64_NW BOM_LAT BOM_LON BOM_TYPE BOM_WIND BOM_PRES BOM_TNUM BOM_CI BOM_RMW BOM_R34_NE BOM_R34_SE BOM_R34_SW BOM_R34_NW BOM_R50_NE BOM_R50_SE BOM_R50_SW BOM_R50_NW BOM_R64_NE BOM_R64_SE BOM_R64_SW BOM_R64_NW BOM_ROCI BOM_POCI BOM_EYE BOM_POS_METHOD BOM_PRES_METHOD NADI_LAT NADI_LON NADI_CAT NADI_WIND NADI_PRES WELLINGTON_LAT WELLINGTON_LON WELLINGTON_WIND WELLINGTON_PRES DS824_LAT DS824_LON DS824_STAGE DS824_WIND DS824_PRES TD9636_LAT TD9636_LON TD9636_STAGE TD9636_WIND TD9636_PRES TD9635_LAT TD9635_LON TD9635_WIND TD9635_PRES TD9635_ROCI NEUMANN_LAT NEUMANN_LON NEUMANN_CLASS NEUMANN_WIND NEUMANN_PRES MLC_LAT MLC_LON MLC_CLASS MLC_WIND MLC_PRES USA_GUST BOM_GUST BOM_GUST_PER REUNION_GUST REUNION_GUST_PER USA_SEAHGT USA_SEARAD_NE USA_SEARAD_SE USA_SEARAD_SW USA_SEARAD_NW STORM_SPEED STORM_DIR
1944042S10074 1944 13 SI MM NOT_NAMED 1944-02-11 06:00:00 NR -9.90000 74.1000 reunion main 1909 1909 _____O________ -1 -9.90000 74.1000 99 9.90000 3 201
1944042S10074 1944 13 SI MM NOT_NAMED 1944-02-11 09:00:00 NR -10.0481 74.0386 main 1924 1924 _____P________ -1 -10.0481 74.0386 99 3 202
1944042S10074 1944 13 SI MM NOT_NAMED 1944-02-11 12:00:00 NR -10.1999 73.9747 main 1944 1944 _____P________ -1 -10.1999 73.9747 99 3 203
1944042S10074 1944 13 SI MM NOT_NAMED 1944-02-11 15:00:00 NR -10.3593 73.9058 main 1969 1969 _____P________ -1 -10.3593 73.9058 99 4 204
1944042S10074 1944 13 SI MM NOT_NAMED 1944-02-11 18:00:00 NR -10.5299 73.8295 main 1984 1984 _____P________ -1 -10.5299 73.8295 99 4 204
1944042S10074 1944 13 SI MM NOT_NAMED 1944-02-11 21:00:00 NR -10.7155 73.7432 main 2009 1998 _____P________ -1 -10.7155 73.7432 99 4 205
1944042S10074 1944 13 SI MM NOT_NAMED 1944-02-12 00:00:00 NR -10.9199 73.6446 main 1988 1967 _____P________ -1 -10.9199 73.6446 99 5 206
1944042S10074 1944 13 SI MM NOT_NAMED 1944-02-12 03:00:00 NR -11.1468 73.5310 main 1967 1940 _____P________ -1 -11.1468 73.5310 99 5 207
1944042S10074 1944 13 SI MM NOT_NAMED 1944-02-12 06:00:00 NR -11.4000 73.4000 reunion main 1940 1913 _____O________ -1 -11.4000 73.4000 99 9.90000 6 207
1944042S10074 1944 13 SI MM NOT_NAMED 1944-02-12 09:00:00 NR -11.6818 73.2499 main 1904 1877 _____P________ -1 -11.6818 73.2499 99 7 208
1944042S10074 1944 13 SI MM NOT_NAMED 1944-02-12 12:00:00 NR -11.9890 73.0828 main 1877 1841 _____P________ -1 -11.9890 73.0828 99 7 208
1944042S10074 1944 13 SI MM NOT_NAMED 1944-02-12 15:00:00 NR -12.3167 72.9019 main 1841 1806 _____P________ -1 -12.3167 72.9019 99 8 209
1944042S10074 1944 13 SI MM NOT_NAMED 1944-02-12 18:00:00 NR -12.6604 72.7103 main 1800 1765 _____P________ -1 -12.6604 72.7103 99 8 209
1944042S10074 1944 13 SI MM NOT_NAMED 1944-02-12 21:00:00 NR -13.0152 72.5112 main 1765 1724 _____P________ -1 -13.0152 72.5112 99 8 209
1944042S10074 1944 13 SI MM NOT_NAMED 1944-02-13 00:00:00 NR -13.3765 72.3076 main 1724 1689 _____P________ -1 -13.3765 72.3076 99 8 209
1944042S10074 1944 13 SI MM NOT_NAMED 1944-02-13 03:00:00 NR -13.7397 72.1028 main 1689 1649 _____P________ -1 -13.7397 72.1028 99 8 209
1944042S10074 1944 13 SI MM NOT_NAMED 1944-02-13 06:00:00 NR -14.1000 71.9000 reunion main 1649 1615 _____O________ -1 -14.1000 71.9000 99 9.90000 8 209
1944042S10074 1944 13 SI MM NOT_NAMED 1944-02-13 09:00:00 NR -14.4260 71.7064 main 1615 1581 _____P________ -1 -14.4260 71.7064 99 8 210
1944042S10074 1944 13 SI MM NOT_NAMED 1944-02-13 12:00:00 NR -14.7506 71.5121 main 1576 1543 _____P________ -1 -14.7506 71.5121 99 8 210
1944042S10074 1944 13 SI MM NOT_NAMED 1944-02-13 15:00:00 NR -15.0762 71.3185 main 1543 1510 _____P________ -1 -15.0762 71.3185 99 8 210
1944042S10074 1944 13 SI MM NOT_NAMED 1944-02-13 18:00:00 NR -15.4051 71.1265 main 1510 1477 _____P________ -1 -15.4051 71.1265 99 8 209
1944042S10074 1944 13 SI MM NOT_NAMED 1944-02-13 21:00:00 NR -15.7395 70.9375 main 1477 1450 _____P________ -1 -15.7395 70.9375 99 8 208
1944042S10074 1944 13 SI MM NOT_NAMED 1944-02-14 00:00:00 NR -16.0819 70.7526 main 1450 1419 _____P________ -1 -16.0819 70.7526 99 8 207
1944042S10074 1944 13 SI MM NOT_NAMED 1944-02-14 03:00:00 NR -16.4346 70.5731 main 1419 1384 _____P________ -1 -16.4346 70.5731 99 8 205
1944042S10074 1944 13 SI MM NOT_NAMED 1944-02-14 06:00:00 NR -16.8000 70.4000 reunion main 1384 1353 _____O________ -1 -16.8000 70.4000 99 9.90000 8 204
1944042S10074 1944 13 SI MM NOT_NAMED 1944-02-14 09:00:00 NR -17.1541 70.2333 main 1350 1330 _____P________ -1 -17.1541 70.2333 99 8 203
1944042S10074 1944 13 SI MM NOT_NAMED 1944-02-14 12:00:00 NR -17.5171 70.0727 main 1330 1299 _____P________ -1 -17.5171 70.0727 99 8 202
1944042S10074 1944 13 SI MM NOT_NAMED 1944-02-14 15:00:00 NR -17.8929 69.9177 main 1299 1278 _____P________ -1 -17.8929 69.9177 99 8 201
1944042S10074 1944 13 SI MM NOT_NAMED 1944-02-14 18:00:00 NR -18.2854 69.7675 main 1278 1249 _____P________ -1 -18.2854 69.7675 99 9 199
1944042S10074 1944 13 SI MM NOT_NAMED 1944-02-14 21:00:00 NR -18.6984 69.6214 main 1249 1231 _____P________ -1 -18.6984 69.6214 99 9 198
1944042S10074 1944 13 SI MM NOT_NAMED 1944-02-15 00:00:00 NR -19.1359 69.4786 main 1231 1204 _____P________ -1 -19.1359 69.4786 99 9 196
1944042S10074 1944 13 SI MM NOT_NAMED 1944-02-15 03:00:00 NR -19.6018 69.3384 main 1204 1189 _____P________ -1 -19.6018 69.3384 99 10 195
1944042S10074 1944 13 SI MM NOT_NAMED 1944-02-15 06:00:00 NR -20.1000 69.2000 reunion main 1189 1177 _____O________ -1 -20.1000 69.2000 99 9.90000 11 194
1944042S10074 1944 13 SI MM NOT_NAMED 1944-02-15 09:00:00 NR -20.6972 69.0422 main 1166 1157 _____P________ -1 -20.6972 69.0422 99 13 193
1944042S10074 1944 13 SI MM NOT_NAMED 1944-02-15 12:00:00 NR -21.3356 68.8843 main 1158 1144 _____P________ -1 -21.3356 68.8843 99 13 193
1944042S10074 1944 13 SI MM NOT_NAMED 1944-02-15 15:00:00 NR -21.9968 68.7290 main 1145 1142 _____P________ -1 -21.9968 68.7290 99 14 192
1944042S10074 1944 13 SI MM NOT_NAMED 1944-02-15 18:00:00 NR -22.6625 68.5794 main 1148 1140 _____P________ -1 -22.6625 68.5794 99 14 191
1944042S10074 1944 13 SI MM NOT_NAMED 1944-02-15 21:00:00 NR -23.3140 68.4385 main 1143 1143 _____P________ -1 -23.3140 68.4385 99 13 191
1944042S10074 1944 13 SI MM NOT_NAMED 1944-02-16 00:00:00 NR -23.9331 68.3094 main 1153 1153 _____P________ -1 -23.9331 68.3094 99 12 191
1944042S10074 1944 13 SI MM NOT_NAMED 1944-02-16 03:00:00 NR -24.5012 68.1954 main 1166 1166 _____P________ -1 -24.5012 68.1954 99 11 190
1944042S10074 1944 13 SI MM NOT_NAMED 1944-02-16 06:00:00 NR -25.0000 68.1000 reunion main 1178 1178 _____O________ -1 -25.0000 68.1000 99 9.90000 9 190
1944042S10074 1944 13 SI MM NOT_NAMED 1944-02-16 09:00:00 NR -25.4161 68.0256 main 1187 1187 _____P________ -1 -25.4161 68.0256 99 8 189
1944042S10074 1944 13 SI MM NOT_NAMED 1944-02-16 12:00:00 NR -25.7556 67.9708 main 1207 1203 _____P________ -1 -25.7556 67.9708 99 6 187
1944042S10074 1944 13 SI MM NOT_NAMED 1944-02-16 15:00:00 NR -26.0296 67.9328 main 1208 1208 _____P________ -1 -26.0296 67.9328 99 5 187
1944042S10074 1944 13 SI MM NOT_NAMED 1944-02-16 18:00:00 NR -26.2490 67.9091 main 1219 1219 _____P________ -1 -26.2490 67.9091 99 4 186
1944042S10074 1944 13 SI MM NOT_NAMED 1944-02-16 21:00:00 NR -26.4249 67.8967 main 1230 1230 _____P________ -1 -26.4249 67.8967 99 3 0
1944042S10074 1944 13 SI MM NOT_NAMED 1944-02-17 00:00:00 NR -26.5681 67.8930 main 1242 1242 _____P________ -1 -26.5681 67.8930 99 3 185
1944042S10074 1944 13 SI MM NOT_NAMED 1944-02-17 03:00:00 NR -26.6895 67.8951 main 1247 1247 _____P________ -1 -26.6895 67.8951 99 2 0
1944042S10074 1944 13 SI MM NOT_NAMED 1944-02-17 06:00:00 NR -26.8000 67.9000 reunion main 1253 _____O________ -1 -26.8000 67.9000 99 9.90000 2 171

About IBTrACS Database

This database is a web-friendly format of International Best Track Archive for Climate Stewardship (IBTrACS), a global best track data archive curated by NOAA dating back to 1842.

Updated: 2021-10-08